createdAt,value
2017-12-25T00:00:49.011Z,1.10
2017-12-25T00:03:15.509Z,0.90
2017-12-25T00:05:41.995Z,0.90
2017-12-25T00:08:32.387Z,0.90
2017-12-25T00:10:58.898Z,1.10
2017-12-25T00:13:25.370Z,0.90
2017-12-25T00:15:52.583Z,1.00
2017-12-25T00:18:22.969Z,0.80
2017-12-25T00:20:50.183Z,1.10
2017-12-25T00:23:16.661Z,1.05
2017-12-25T00:25:43.183Z,1.00
2017-12-25T00:28:09.651Z,1.10
2017-12-25T00:30:36.154Z,0.90
2017-12-25T00:33:02.662Z,1.00
2017-12-25T00:35:35.556Z,0.90
2017-12-25T00:38:02.029Z,1.00
2017-12-25T00:40:28.568Z,0.90
2017-12-25T00:42:55.065Z,0.90
2017-12-25T00:45:33.029Z,1.00
2017-12-25T00:48:00.270Z,0.90
2017-12-25T00:50:26.760Z,0.90
2017-12-25T00:52:57.148Z,1.00
2017-12-25T00:55:23.618Z,0.88
2017-12-25T00:57:50.894Z,1.25
2017-12-25T01:00:17.377Z,1.00
2017-12-25T01:02:52.031Z,0.98
2017-12-25T01:05:18.555Z,0.95
2017-12-25T01:07:45.050Z,1.00
2017-12-25T01:10:11.566Z,1.00
2017-12-25T01:12:38.661Z,0.90
2017-12-25T01:15:05.102Z,1.15
2017-12-25T01:17:31.590Z,1.10
2017-12-25T01:19:58.075Z,1.00
2017-12-25T01:22:24.604Z,1.30
2017-12-25T01:24:51.843Z,1.20
2017-12-25T01:27:18.440Z,1.00
2017-12-25T01:29:44.999Z,1.00
2017-12-25T01:32:11.451Z,1.00
2017-12-25T01:34:37.924Z,1.25
2017-12-25T01:37:04.400Z,1.30
2017-12-25T01:39:47.816Z,1.40
2017-12-25T01:42:14.355Z,1.37
2017-12-25T01:44:41.576Z,1.37
2017-12-25T01:47:08.086Z,1.40
2017-12-25T01:49:42.909Z,1.50
2017-12-25T01:52:10.206Z,1.50
2017-12-25T01:54:37.793Z,1.40
2017-12-25T02:00:03.019Z,1.45
2017-12-25T02:02:29.588Z,1.58
2017-12-25T02:05:05.905Z,1.80
2017-12-25T02:10:25.173Z,1.60
2017-12-25T02:12:51.641Z,1.70
2017-12-25T02:15:18.142Z,1.30
2017-12-25T02:17:44.630Z,1.70
2017-12-25T02:20:12.201Z,1.50
2017-12-25T02:22:39.400Z,1.70
2017-12-25T02:25:05.919Z,1.40
2017-12-25T02:27:33.117Z,1.73
2017-12-25T02:30:04.353Z,1.77
2017-12-25T02:32:31.707Z,1.73
2017-12-25T02:34:58.242Z,1.85
2017-12-25T02:37:24.872Z,1.80
2017-12-25T02:39:52.542Z,1.70
2017-12-25T02:42:19.180Z,1.83
2017-12-25T02:44:46.508Z,1.90
2017-12-25T02:47:13.168Z,1.90
2017-12-25T02:49:46.563Z,2.17
2017-12-25T02:52:13.045Z,1.92
2017-12-25T02:54:39.632Z,2.00
2017-12-25T02:57:06.372Z,2.20
2017-12-25T02:59:41.097Z,1.80
2017-12-25T03:02:07.735Z,2.20
2017-12-25T03:04:34.270Z,2.22
2017-12-25T03:07:00.907Z,2.28
2017-12-25T03:09:27.441Z,2.45
2017-12-25T03:11:54.078Z,2.20
2017-12-25T03:14:20.715Z,2.30
2017-12-25T03:16:48.069Z,2.75
2017-12-25T03:19:24.947Z,2.30
2017-12-25T03:21:51.584Z,2.30
2017-12-25T03:24:18.220Z,2.50
2017-12-25T03:26:44.858Z,2.40
2017-12-25T03:29:12.210Z,2.40
2017-12-25T03:31:38.749Z,2.57
2017-12-25T03:34:05.383Z,2.10
2017-12-25T03:36:32.024Z,2.40
2017-12-25T03:38:59.475Z,2.40
2017-12-25T03:41:26.114Z,2.20
2017-12-25T03:43:52.751Z,2.30
2017-12-25T03:46:19.387Z,2.60
2017-12-25T03:48:46.740Z,2.30
2017-12-25T03:51:13.382Z,2.25
2017-12-25T03:53:40.015Z,2.40
2017-12-25T03:56:06.655Z,2.60
2017-12-25T03:58:33.289Z,2.42
2017-12-25T04:01:00.579Z,2.72
2017-12-25T04:03:27.893Z,2.30
2017-12-25T04:05:54.633Z,2.20
2017-12-25T04:08:21.174Z,2.25
2017-12-25T04:10:47.818Z,2.10
2017-12-25T04:13:14.316Z,2.40
2017-12-25T04:15:40.801Z,2.00
2017-12-25T04:18:07.289Z,2.20
2017-12-25T04:20:34.508Z,2.20
2017-12-25T04:23:00.965Z,2.20
2017-12-25T04:25:27.413Z,1.92
2017-12-25T04:27:53.886Z,1.90
2017-12-25T04:30:20.380Z,2.40
2017-12-25T04:32:47.592Z,1.85
2017-12-25T04:35:15.104Z,1.70
2017-12-25T04:37:41.556Z,1.80
2017-12-25T04:40:08.053Z,1.80
2017-12-25T04:42:34.545Z,2.10
2017-12-25T04:45:01.058Z,2.00
2017-12-25T04:47:27.493Z,1.50
2017-12-25T04:49:53.971Z,2.00
2017-12-25T04:52:20.446Z,1.98
2017-12-25T04:54:47.679Z,1.70
2017-12-25T04:57:14.225Z,1.85
2017-12-25T04:59:40.671Z,1.80
2017-12-25T05:02:07.157Z,1.80
2017-12-25T05:04:34.646Z,2.00
2017-12-25T05:07:01.119Z,2.28
2017-12-25T05:09:27.660Z,2.50
2017-12-25T05:11:54.172Z,2.60
2017-12-25T05:14:20.706Z,2.60
2017-12-25T05:16:47.946Z,2.58
2017-12-25T05:19:14.504Z,2.70
2017-12-25T05:21:41.026Z,2.62
2017-12-25T05:24:07.531Z,2.90
2017-12-25T05:26:42.735Z,3.10
2017-12-25T05:29:09.219Z,3.00
2017-12-25T05:31:35.707Z,3.20
2017-12-25T05:34:02.335Z,3.03
2017-12-25T05:36:32.317Z,3.12
2017-12-25T05:38:59.544Z,2.80
2017-12-25T05:41:26.141Z,2.40
2017-12-25T05:43:53.386Z,2.20
2017-12-25T05:46:19.961Z,2.10
2017-12-25T05:48:46.437Z,2.47
2017-12-25T05:51:13.676Z,2.80
2017-12-25T05:53:40.161Z,2.40
2017-12-25T05:56:15.150Z,2.60
2017-12-25T05:58:41.594Z,2.50
2017-12-25T06:01:08.074Z,2.62
2017-12-25T06:03:34.594Z,2.50
2017-12-25T06:06:09.743Z,2.40
2017-12-25T06:08:36.249Z,2.30
2017-12-25T06:11:04.264Z,2.55
2017-12-25T06:13:31.844Z,2.22
2017-12-25T06:15:58.393Z,1.95
2017-12-25T06:18:24.904Z,2.00
2017-12-25T06:20:51.649Z,1.90
2017-12-25T06:23:20.234Z,2.30
2017-12-25T06:25:47.479Z,2.20
2017-12-25T06:28:14.130Z,2.33
2017-12-25T06:30:40.680Z,2.30
2017-12-25T06:33:07.312Z,2.00
2017-12-25T06:35:33.798Z,2.20
2017-12-25T06:38:00.273Z,2.00
2017-12-25T06:40:26.740Z,2.05
2017-12-25T06:42:56.339Z,2.30
2017-12-25T06:45:22.820Z,2.20
2017-12-25T06:47:49.308Z,2.30
2017-12-25T06:50:19.659Z,2.50
2017-12-25T06:52:46.215Z,2.40
2017-12-25T06:55:13.562Z,2.58
2017-12-25T06:57:40.152Z,2.80
2017-12-25T07:02:59.554Z,2.50
2017-12-25T07:05:26.763Z,2.25
2017-12-25T07:07:53.239Z,2.30
2017-12-25T07:10:19.845Z,2.35
2017-12-25T07:12:46.481Z,2.30
2017-12-25T07:15:13.062Z,2.20
2017-12-25T07:17:40.344Z,2.10
2017-12-25T07:20:21.024Z,2.40
2017-12-25T07:22:47.565Z,2.60
2017-12-25T07:25:14.842Z,2.47
2017-12-25T07:27:42.117Z,2.45
2017-12-25T07:30:18.801Z,2.58
2017-12-25T07:32:46.073Z,2.67
2017-12-25T07:35:13.261Z,2.80
2017-12-25T07:37:39.806Z,2.80
2017-12-25T07:43:05.791Z,2.90
2017-12-25T07:45:32.292Z,2.90
2017-12-25T07:47:59.584Z,2.87
2017-12-25T07:53:35.453Z,2.60
2017-12-25T07:56:02.833Z,5.90
2017-12-25T07:58:29.387Z,7.72
2017-12-25T08:01:10.471Z,10.35
2017-12-25T08:03:37.746Z,7.43
2017-12-25T08:06:04.304Z,8.55
2017-12-25T08:08:30.806Z,7.00
2017-12-25T08:16:51.903Z,5.97
2017-12-25T08:19:18.563Z,3.60
2017-12-25T08:21:45.120Z,3.25
2017-12-25T08:24:12.340Z,2.90
2017-12-25T08:26:45.396Z,3.00
2017-12-25T08:29:12.672Z,3.83
2017-12-25T08:31:39.946Z,3.70
2017-12-25T08:34:07.188Z,4.20
2017-12-25T08:36:40.534Z,2.60
2017-12-25T08:39:07.031Z,2.70
2017-12-25T08:41:33.645Z,2.70
2017-12-25T08:44:00.838Z,2.50
2017-12-25T08:46:27.362Z,2.50
2017-12-25T08:48:54.566Z,2.10
2017-12-25T08:51:21.806Z,2.40
2017-12-25T08:53:49.018Z,2.05
2017-12-25T09:04:56.223Z,4.00
2017-12-25T09:07:23.504Z,2.20
2017-12-25T09:09:50.780Z,3.30
2017-12-25T09:12:17.988Z,4.90
2017-12-25T09:20:54.467Z,4.50
2017-12-25T09:23:21.095Z,6.43
2017-12-25T09:25:48.369Z,6.93
2017-12-25T09:28:15.644Z,8.13
2017-12-25T09:36:55.707Z,5.03
2017-12-25T09:39:22.266Z,9.50
2017-12-25T09:41:49.625Z,13.68
2017-12-25T09:44:16.201Z,19.80
2017-12-25T09:49:56.468Z,13.68
2017-12-25T09:52:23.844Z,33.33
2017-12-25T09:54:51.118Z,18.00
2017-12-25T09:57:18.392Z,12.65
2017-12-25T09:59:55.519Z,21.52
2017-12-25T10:02:22.044Z,12.02
2017-12-25T10:04:49.099Z,4.53
2017-12-25T10:07:16.387Z,7.12
2017-12-25T10:09:49.491Z,9.43
2017-12-25T10:12:16.869Z,4.97
2017-12-25T10:14:44.560Z,10.32
2017-12-25T10:17:11.094Z,5.70
2017-12-25T10:19:39.368Z,3.03
2017-12-25T10:22:05.966Z,2.60
2017-12-25T10:24:33.241Z,2.60
2017-12-25T10:27:00.475Z,2.93
2017-12-25T10:29:29.020Z,3.70
2017-12-25T10:31:58.646Z,2.70
2017-12-25T10:34:26.029Z,1.90
2017-12-25T10:36:59.626Z,2.30
2017-12-25T10:39:26.828Z,2.10
2017-12-25T10:41:53.368Z,2.40
2017-12-25T10:44:20.746Z,2.65
2017-12-25T10:46:48.033Z,9.15
2017-12-25T10:49:14.505Z,6.37
2017-12-25T10:51:40.985Z,8.25
2017-12-25T10:54:08.055Z,4.82
2017-12-25T10:56:34.565Z,5.32
2017-12-25T10:59:01.023Z,8.45
2017-12-25T11:01:28.178Z,22.58
2017-12-25T11:03:55.396Z,7.20
2017-12-25T11:06:21.840Z,13.85
2017-12-25T11:08:55.331Z,9.27
2017-12-25T11:11:33.040Z,6.40
2017-12-25T11:13:59.597Z,15.23
2017-12-25T11:16:26.911Z,11.35
2017-12-25T11:19:07.884Z,11.40
2017-12-25T11:21:34.634Z,22.63
2017-12-25T11:24:01.174Z,22.98
2017-12-25T11:26:28.446Z,17.52
2017-12-25T11:35:03.397Z,13.60
2017-12-25T11:37:32.891Z,21.10
2017-12-25T11:39:59.354Z,2.15
2017-12-25T11:42:25.936Z,13.65
2017-12-25T11:47:53.111Z,9.25
2017-12-25T11:50:20.385Z,16.67
2017-12-25T11:52:47.569Z,4.07
2017-12-25T11:55:14.031Z,6.75
2017-12-25T11:57:40.572Z,5.25
2017-12-25T12:00:07.948Z,16.85
2017-12-25T12:02:35.616Z,18.00
2017-12-25T12:05:02.951Z,3.60
2017-12-25T12:07:30.282Z,11.23
2017-12-25T12:09:57.487Z,2.30
2017-12-25T12:12:24.605Z,18.87
2017-12-25T12:15:09.403Z,15.13
2017-12-25T12:17:35.949Z,10.60
2017-12-25T12:20:03.224Z,15.13
2017-12-25T12:22:32.507Z,20.50
2017-12-25T12:24:59.819Z,10.10
2017-12-25T12:27:26.304Z,11.90
2017-12-25T12:29:52.784Z,31.98
2017-12-25T12:32:20.414Z,9.38
2017-12-25T12:34:47.657Z,10.10
2017-12-25T12:37:14.965Z,13.10
2017-12-25T12:39:41.623Z,27.75
2017-12-25T12:42:08.837Z,12.90
2017-12-25T12:44:35.865Z,7.78
2017-12-25T12:47:03.142Z,7.55
2017-12-25T12:49:29.662Z,16.80
2017-12-25T12:51:57.074Z,15.60
2017-12-25T12:54:24.358Z,6.47
2017-12-25T12:56:50.846Z,13.38
2017-12-25T12:59:17.335Z,10.65
2017-12-25T13:01:43.821Z,17.10
2017-12-25T13:04:10.995Z,2.40
2017-12-25T13:06:37.538Z,2.70
2017-12-25T13:09:04.826Z,2.20
2017-12-25T13:11:32.042Z,2.30
2017-12-25T13:13:58.556Z,2.10
2017-12-25T13:16:25.830Z,2.10
2017-12-25T13:18:53.050Z,2.27
2017-12-25T13:21:19.667Z,2.20
2017-12-25T13:23:46.221Z,2.10
2017-12-25T13:26:13.496Z,3.00
2017-12-25T13:28:40.817Z,2.80
2017-12-25T13:31:07.304Z,16.10
2017-12-25T13:33:33.892Z,6.20
2017-12-25T13:36:00.344Z,5.50
2017-12-25T13:38:49.341Z,6.15
2017-12-25T13:41:15.773Z,4.37
2017-12-25T13:43:42.321Z,3.78
2017-12-25T13:46:10.899Z,3.70
2017-12-25T13:48:38.193Z,2.15
2017-12-25T13:51:05.372Z,5.80
2017-12-25T13:53:31.815Z,2.65
2017-12-25T13:55:59.078Z,2.70
2017-12-25T13:58:25.531Z,2.28
2017-12-25T14:00:52.769Z,3.70
2017-12-25T14:03:19.292Z,4.12
2017-12-25T14:05:45.747Z,3.30
2017-12-25T14:08:12.304Z,2.80
2017-12-25T14:10:38.857Z,3.03
2017-12-25T14:13:06.114Z,3.73
2017-12-25T14:15:33.369Z,3.37
2017-12-25T14:17:59.831Z,2.87
2017-12-25T14:20:27.852Z,2.40
2017-12-25T14:23:00.241Z,3.15
2017-12-25T14:25:27.514Z,5.55
2017-12-25T14:27:55.343Z,3.10
2017-12-25T14:30:21.859Z,2.97
2017-12-25T14:33:04.683Z,3.10
2017-12-25T14:35:31.238Z,2.90
2017-12-25T14:37:58.512Z,2.90
2017-12-25T14:40:25.029Z,2.40
2017-12-25T14:42:58.836Z,2.87
2017-12-25T14:45:25.296Z,3.13
2017-12-25T14:47:51.757Z,2.83
2017-12-25T14:50:18.237Z,2.60
2017-12-25T14:52:45.890Z,2.70
2017-12-25T14:55:12.400Z,2.75
2017-12-25T14:57:39.589Z,3.10
2017-12-25T15:00:06.128Z,2.85
2017-12-25T15:02:33.368Z,3.10
2017-12-25T15:04:59.853Z,3.17
2017-12-25T15:07:34.397Z,3.80
2017-12-25T15:10:00.871Z,4.05
2017-12-25T15:12:27.379Z,5.20
2017-12-25T15:14:53.829Z,13.20
2017-12-25T15:17:21.090Z,67.77
2017-12-25T15:19:47.598Z,79.70
2017-12-25T15:22:14.058Z,15.37
2017-12-25T15:24:40.508Z,15.73
2017-12-25T15:27:07.777Z,23.30
2017-12-25T15:29:35.058Z,21.77
2017-12-25T15:32:02.439Z,50.42
2017-12-25T15:34:29.011Z,90.65
2017-12-25T15:37:00.566Z,77.47
2017-12-25T15:39:27.227Z,38.20
2017-12-25T15:41:54.480Z,31.50
2017-12-25T15:44:27.808Z,37.10
2017-12-25T15:46:55.083Z,19.70
2017-12-25T15:49:22.359Z,17.95
2017-12-25T15:51:49.572Z,15.90
2017-12-25T15:59:45.613Z,22.48
2017-12-25T16:02:12.888Z,17.83
2017-12-25T16:04:40.128Z,13.20
2017-12-25T16:07:07.258Z,33.35
2017-12-25T16:09:35.132Z,16.17
2017-12-25T16:12:01.847Z,13.90
2017-12-25T16:14:45.931Z,26.60
2017-12-25T16:17:13.153Z,16.05
2017-12-25T16:19:39.662Z,27.58
2017-12-25T16:22:29.743Z,22.45
2017-12-25T16:24:57.538Z,21.42
2017-12-25T16:27:24.050Z,38.30
2017-12-25T16:29:50.632Z,33.70
2017-12-25T16:32:18.025Z,20.70
2017-12-25T16:34:54.710Z,16.00
2017-12-25T16:37:35.000Z,12.15
2017-12-25T16:40:03.820Z,9.88
2017-12-25T16:42:30.338Z,8.75
2017-12-25T16:44:56.900Z,8.45
2017-12-25T16:47:24.578Z,10.18
2017-12-25T16:49:53.550Z,9.80
2017-12-25T16:52:23.019Z,10.77
2017-12-25T16:54:52.709Z,11.88
2017-12-25T16:57:22.099Z,13.00
2017-12-25T16:59:50.913Z,16.25
2017-12-25T17:02:19.315Z,19.80
2017-12-25T17:05:05.489Z,19.63
2017-12-25T17:07:31.968Z,27.27
2017-12-25T17:09:58.448Z,39.25
2017-12-25T17:12:24.952Z,23.35
2017-12-25T17:14:51.455Z,29.15
2017-12-25T17:17:17.913Z,33.00
2017-12-25T17:19:44.511Z,49.72
2017-12-25T17:22:11.258Z,22.30
2017-12-25T17:24:38.494Z,42.40
2017-12-25T17:27:09.970Z,33.20
2017-12-25T17:29:36.560Z,14.95
2017-12-25T17:32:05.895Z,14.80
2017-12-25T17:34:33.490Z,27.10
2017-12-25T17:37:01.536Z,21.60
2017-12-25T17:39:38.550Z,36.50
2017-12-25T17:42:08.308Z,57.53
2017-12-25T17:44:37.655Z,32.22
2017-12-25T17:47:06.709Z,133.85
2017-12-25T17:49:43.917Z,56.27
2017-12-25T17:52:12.854Z,79.70
2017-12-25T17:54:41.484Z,39.00
2017-12-25T17:57:07.991Z,329.50
2017-12-25T17:59:55.514Z,156.43
2017-12-25T18:02:22.796Z,130.10
2017-12-25T18:04:50.816Z,67.72
2017-12-25T18:07:19.061Z,37.55
2017-12-25T18:09:46.461Z,13.60
2017-12-25T18:12:13.130Z,11.20
2017-12-25T18:14:39.775Z,8.85
2017-12-25T18:17:07.054Z,7.97
2017-12-25T18:19:33.608Z,7.60
2017-12-25T18:22:00.882Z,8.68
2017-12-25T18:24:28.102Z,7.47
2017-12-25T18:27:01.351Z,7.05
2017-12-25T18:29:28.637Z,7.00
2017-12-25T18:31:55.838Z,6.80
2017-12-25T18:34:22.307Z,6.83
2017-12-25T18:36:52.404Z,5.60
2017-12-25T18:39:19.678Z,5.40
2017-12-25T18:41:46.952Z,5.00
2017-12-25T18:44:14.229Z,5.32
2017-12-25T18:46:49.683Z,5.12
2017-12-25T18:49:16.957Z,5.43
2017-12-25T18:51:43.456Z,8.10
2017-12-25T18:54:09.975Z,7.18
2017-12-25T18:56:50.482Z,10.50
2017-12-25T18:59:17.102Z,10.63
2017-12-25T19:01:44.321Z,7.90
2017-12-25T19:04:10.982Z,8.70
2017-12-25T19:06:37.458Z,9.43
2017-12-25T19:09:04.045Z,9.60
2017-12-25T19:11:31.273Z,11.38
2017-12-25T19:13:58.473Z,12.50
2017-12-25T19:16:25.054Z,12.00
2017-12-25T19:18:52.435Z,14.60
2017-12-25T19:21:18.991Z,24.92
2017-12-25T19:23:46.268Z,26.25
2017-12-25T19:26:13.306Z,23.25
2017-12-25T19:28:39.894Z,22.50
2017-12-25T19:31:07.280Z,21.50
2017-12-25T19:33:34.383Z,18.92
2017-12-25T19:36:00.863Z,13.17
2017-12-25T19:38:27.357Z,13.25
2017-12-25T19:40:54.632Z,12.88
2017-12-25T19:43:21.097Z,12.48
2017-12-25T19:45:47.736Z,11.00
2017-12-25T19:48:15.021Z,9.45
2017-12-25T19:50:42.296Z,10.38
2017-12-25T19:53:08.855Z,11.32
2017-12-25T19:55:35.979Z,9.30
2017-12-25T19:58:02.458Z,9.05
2017-12-25T20:00:28.939Z,8.37
2017-12-25T20:02:55.498Z,9.85
2017-12-25T20:05:21.977Z,9.00
2017-12-25T20:07:48.446Z,9.70
2017-12-25T20:10:14.969Z,9.90
2017-12-25T20:12:42.242Z,10.00
2017-12-25T20:15:08.801Z,7.63
2017-12-25T20:17:35.361Z,7.55
2017-12-25T20:20:02.620Z,8.07
2017-12-25T20:22:29.907Z,9.20
2017-12-25T20:24:57.288Z,10.45
2017-12-25T20:27:23.947Z,8.50
2017-12-25T20:29:51.220Z,8.10
2017-12-25T20:32:18.497Z,8.38
2017-12-25T20:34:45.055Z,6.20
2017-12-25T20:37:11.567Z,9.00
2017-12-25T20:39:38.888Z,8.90
2017-12-25T20:42:05.425Z,5.78
2017-12-25T20:44:31.890Z,5.70
2017-12-25T20:46:58.342Z,5.40
2017-12-25T20:49:24.916Z,5.30
2017-12-25T20:51:52.194Z,5.53
2017-12-25T20:54:18.850Z,5.60
2017-12-25T20:56:46.049Z,5.72
2017-12-25T20:59:12.581Z,7.60
2017-12-25T21:01:39.923Z,10.77
2017-12-25T21:04:06.517Z,8.30
2017-12-25T21:06:33.894Z,7.30
2017-12-25T21:09:00.452Z,7.60
2017-12-25T21:11:27.780Z,7.50
2017-12-25T21:13:54.386Z,5.70
2017-12-25T21:16:21.661Z,4.70
2017-12-25T21:18:48.937Z,3.62
2017-12-25T21:21:16.193Z,3.30
2017-12-25T21:23:43.192Z,3.45
2017-12-25T21:26:10.713Z,3.40
2017-12-25T21:28:37.324Z,4.15
2017-12-25T21:31:03.886Z,3.70
2017-12-25T21:33:30.536Z,3.35
2017-12-25T21:35:57.916Z,5.25
2017-12-25T21:38:24.574Z,10.70
2017-12-25T21:40:51.087Z,6.85
2017-12-25T21:43:17.793Z,3.60
2017-12-25T21:45:45.169Z,3.50
2017-12-25T21:48:12.548Z,3.30
2017-12-25T21:50:39.091Z,2.80
2017-12-25T21:53:06.320Z,2.75
2017-12-25T21:55:32.836Z,2.60
2017-12-25T21:58:01.268Z,3.30
2017-12-25T22:00:27.897Z,7.18
2017-12-25T22:02:55.121Z,7.95
2017-12-25T22:05:21.579Z,9.40
2017-12-25T22:07:48.099Z,6.00
2017-12-25T22:10:16.080Z,2.50
2017-12-25T22:12:42.735Z,2.08
2017-12-25T22:15:09.227Z,2.00
2017-12-25T22:17:37.087Z,1.90
2017-12-25T22:20:03.946Z,1.90
2017-12-25T22:22:30.605Z,1.98
2017-12-25T22:24:57.981Z,2.00
2017-12-25T22:27:24.539Z,2.30
2017-12-25T22:29:51.917Z,1.83
2017-12-25T22:32:18.417Z,2.40
2017-12-25T22:34:45.344Z,2.10
2017-12-25T22:37:11.897Z,1.90
2017-12-25T22:39:39.276Z,2.30
2017-12-25T22:42:07.063Z,2.80
2017-12-25T22:44:34.029Z,2.92
2017-12-25T22:47:00.503Z,3.50
2017-12-25T22:49:27.862Z,3.70
2017-12-25T22:51:55.443Z,3.40
2017-12-25T22:54:23.024Z,3.60
2017-12-25T22:56:49.686Z,4.10
2017-12-25T22:59:16.347Z,2.50
2017-12-25T23:01:42.832Z,2.60
2017-12-25T23:04:09.565Z,2.60
2017-12-25T23:06:36.224Z,2.70
2017-12-25T23:09:22.831Z,2.60
2017-12-25T23:11:49.398Z,2.50
2017-12-25T23:14:15.951Z,2.78
2017-12-25T23:16:42.506Z,4.65
2017-12-25T23:19:13.768Z,3.42
2017-12-25T23:21:41.044Z,3.12
2017-12-25T23:24:08.319Z,3.20
2017-12-25T23:26:35.593Z,3.13
2017-12-25T23:29:02.868Z,3.10
2017-12-25T23:31:30.141Z,2.80
2017-12-25T23:33:56.731Z,3.50
2017-12-25T23:36:23.258Z,2.80
2017-12-25T23:39:00.032Z,3.72
2017-12-25T23:41:27.423Z,5.45
2017-12-25T23:43:53.981Z,5.15
2017-12-25T23:46:21.358Z,5.25
2017-12-25T23:49:00.906Z,3.90
2017-12-25T23:51:28.708Z,3.30
2017-12-25T23:53:55.258Z,3.10
2017-12-25T23:56:25.389Z,3.30
2017-12-25T23:58:52.046Z,3.10
